sensor_id;sensor_type;location;lat;lon;timestamp;P1;durP1;ratioP1;P2;durP2;ratioP2
71679;SDS011;59512;42.662;23.254;2023-02-27T00:00:32;29.40;;;12.32;;
71679;SDS011;59512;42.662;23.254;2023-02-27T00:02:57;31.47;;;12.23;;
71679;SDS011;59512;42.662;23.254;2023-02-27T00:05:23;27.13;;;11.20;;
71679;SDS011;59512;42.662;23.254;2023-02-27T00:07:48;31.85;;;12.60;;
71679;SDS011;59512;42.662;23.254;2023-02-27T00:10:14;31.17;;;11.53;;
71679;SDS011;59512;42.662;23.254;2023-02-27T00:12:40;26.05;;;11.23;;
71679;SDS011;59512;42.662;23.254;2023-02-27T00:15:12;31.05;;;12.27;;
71679;SDS011;59512;42.662;23.254;2023-02-27T00:17:40;30.20;;;11.52;;
71679;SDS011;59512;42.662;23.254;2023-02-27T00:20:06;28.40;;;11.43;;
71679;SDS011;59512;42.662;23.254;2023-02-27T00:22:35;30.67;;;11.45;;
71679;SDS011;59512;42.662;23.254;2023-02-27T00:25:00;38.13;;;12.13;;
71679;SDS011;59512;42.662;23.254;2023-02-27T00:27:26;23.67;;;9.80;;
71679;SDS011;59512;42.662;23.254;2023-02-27T00:29:51;29.67;;;10.67;;
71679;SDS011;59512;42.662;23.254;2023-02-27T00:32:17;28.00;;;9.87;;
71679;SDS011;59512;42.662;23.254;2023-02-27T00:34:42;27.03;;;10.50;;
71679;SDS011;59512;42.662;23.254;2023-02-27T00:37:08;30.47;;;11.00;;
71679;SDS011;59512;42.662;23.254;2023-02-27T00:39:33;27.23;;;10.90;;
71679;SDS011;59512;42.662;23.254;2023-02-27T00:41:58;32.00;;;11.27;;
71679;SDS011;59512;42.662;23.254;2023-02-27T00:44:24;27.63;;;10.70;;
71679;SDS011;59512;42.662;23.254;2023-02-27T00:46:49;29.10;;;10.57;;
71679;SDS011;59512;42.662;23.254;2023-02-27T00:49:15;28.20;;;10.60;;
71679;SDS011;59512;42.662;23.254;2023-02-27T00:51:40;31.83;;;10.48;;
71679;SDS011;59512;42.662;23.254;2023-02-27T00:54:06;29.63;;;9.27;;
71679;SDS011;59512;42.662;23.254;2023-02-27T00:56:31;33.63;;;10.60;;
71679;SDS011;59512;42.662;23.254;2023-02-27T00:58:56;25.20;;;9.33;;
71679;SDS011;59512;42.662;23.254;2023-02-27T01:01:22;25.50;;;7.90;;
71679;SDS011;59512;42.662;23.254;2023-02-27T01:03:47;28.95;;;9.23;;
71679;SDS011;59512;42.662;23.254;2023-02-27T01:06:13;27.80;;;7.20;;
71679;SDS011;59512;42.662;23.254;2023-02-27T01:08:38;25.20;;;8.40;;
71679;SDS011;59512;42.662;23.254;2023-02-27T01:11:04;27.70;;;7.33;;
71679;SDS011;59512;42.662;23.254;2023-02-27T01:13:29;30.42;;;8.48;;
71679;SDS011;59512;42.662;23.254;2023-02-27T01:15:55;27.93;;;8.20;;
71679;SDS011;59512;42.662;23.254;2023-02-27T01:18:20;24.67;;;7.93;;
71679;SDS011;59512;42.662;23.254;2023-02-27T01:20:45;26.93;;;8.57;;
71679;SDS011;59512;42.662;23.254;2023-02-27T01:23:16;22.98;;;8.55;;
71679;SDS011;59512;42.662;23.254;2023-02-27T01:25:41;32.63;;;11.60;;
71679;SDS011;59512;42.662;23.254;2023-02-27T01:28:06;30.58;;;8.70;;
71679;SDS011;59512;42.662;23.254;2023-02-27T01:30:32;31.02;;;8.40;;
71679;SDS011;59512;42.662;23.254;2023-02-27T01:32:58;31.67;;;9.30;;
71679;SDS011;59512;42.662;23.254;2023-02-27T01:35:23;29.83;;;10.60;;
71679;SDS011;59512;42.662;23.254;2023-02-27T01:37:48;32.30;;;10.95;;
71679;SDS011;59512;42.662;23.254;2023-02-27T01:40:14;37.90;;;11.17;;
71679;SDS011;59512;42.662;23.254;2023-02-27T01:42:39;33.60;;;10.83;;
71679;SDS011;59512;42.662;23.254;2023-02-27T01:47:44;33.72;;;11.48;;
71679;SDS011;59512;42.662;23.254;2023-02-27T01:50:15;33.33;;;11.07;;
71679;SDS011;59512;42.662;23.254;2023-02-27T01:52:42;32.72;;;11.05;;
71679;SDS011;59512;42.662;23.254;2023-02-27T01:55:08;33.72;;;11.32;;
71679;SDS011;59512;42.662;23.254;2023-02-27T01:57:36;36.00;;;11.10;;
71679;SDS011;59512;42.662;23.254;2023-02-27T02:00:02;29.05;;;11.48;;
71679;SDS011;59512;42.662;23.254;2023-02-27T02:02:32;32.97;;;11.17;;
71679;SDS011;59512;42.662;23.254;2023-02-27T02:05:00;33.17;;;11.55;;
71679;SDS011;59512;42.662;23.254;2023-02-27T02:07:26;33.92;;;11.23;;
71679;SDS011;59512;42.662;23.254;2023-02-27T02:09:53;29.50;;;11.68;;
71679;SDS011;59512;42.662;23.254;2023-02-27T02:12:21;32.97;;;11.88;;
71679;SDS011;59512;42.662;23.254;2023-02-27T02:14:52;27.63;;;10.83;;
71679;SDS011;59512;42.662;23.254;2023-02-27T02:33:47;10.77;;;2.10;;
71679;SDS011;59512;42.662;23.254;2023-02-27T02:45:02;5.68;;;1.58;;
71679;SDS011;59512;42.662;23.254;2023-02-27T02:47:51;7.87;;;1.83;;
71679;SDS011;59512;42.662;23.254;2023-02-27T02:53:03;8.50;;;1.70;;
71679;SDS011;59512;42.662;23.254;2023-02-27T02:58:44;7.20;;;1.70;;
71679;SDS011;59512;42.662;23.254;2023-02-27T03:01:13;5.73;;;1.80;;
71679;SDS011;59512;42.662;23.254;2023-02-27T03:03:45;6.70;;;1.63;;
71679;SDS011;59512;42.662;23.254;2023-02-27T03:06:13;10.38;;;4.90;;
71679;SDS011;59512;42.662;23.254;2023-02-27T03:08:45;17.17;;;7.75;;
71679;SDS011;59512;42.662;23.254;2023-02-27T03:11:14;15.60;;;8.80;;
71679;SDS011;59512;42.662;23.254;2023-02-27T03:13:47;17.37;;;9.93;;
71679;SDS011;59512;42.662;23.254;2023-02-27T03:16:36;18.48;;;10.23;;
71679;SDS011;59512;42.662;23.254;2023-02-27T03:24:03;20.50;;;11.25;;
71679;SDS011;59512;42.662;23.254;2023-02-27T03:26:34;20.92;;;11.32;;
71679;SDS011;59512;42.662;23.254;2023-02-27T03:29:09;21.73;;;11.20;;
71679;SDS011;59512;42.662;23.254;2023-02-27T03:34:17;19.38;;;11.98;;
71679;SDS011;59512;42.662;23.254;2023-02-27T03:36:59;21.05;;;11.50;;
71679;SDS011;59512;42.662;23.254;2023-02-27T03:45:07;18.93;;;10.63;;
71679;SDS011;59512;42.662;23.254;2023-02-27T03:47:43;17.27;;;10.32;;
71679;SDS011;59512;42.662;23.254;2023-02-27T03:50:09;18.00;;;9.70;;
71679;SDS011;59512;42.662;23.254;2023-02-27T03:52:34;17.83;;;9.88;;
71679;SDS011;59512;42.662;23.254;2023-02-27T03:57:38;18.58;;;10.48;;
71679;SDS011;59512;42.662;23.254;2023-02-27T04:00:07;17.43;;;10.40;;
71679;SDS011;59512;42.662;23.254;2023-02-27T04:02:35;17.27;;;9.85;;
71679;SDS011;59512;42.662;23.254;2023-02-27T04:05:02;16.63;;;8.98;;
71679;SDS011;59512;42.662;23.254;2023-02-27T04:07:38;17.93;;;10.63;;
71679;SDS011;59512;42.662;23.254;2023-02-27T04:10:13;18.67;;;9.63;;
71679;SDS011;59512;42.662;23.254;2023-02-27T04:15:23;16.63;;;9.97;;
71679;SDS011;59512;42.662;23.254;2023-02-27T04:31:06;16.35;;;9.32;;
71679;SDS011;59512;42.662;23.254;2023-02-27T04:38:50;17.55;;;10.18;;
71679;SDS011;59512;42.662;23.254;2023-02-27T04:41:22;17.40;;;10.23;;
71679;SDS011;59512;42.662;23.254;2023-02-27T04:43:51;19.27;;;11.15;;
71679;SDS011;59512;42.662;23.254;2023-02-27T04:46:18;18.88;;;10.75;;
71679;SDS011;59512;42.662;23.254;2023-02-27T04:48:49;19.95;;;10.43;;
71679;SDS011;59512;42.662;23.254;2023-02-27T04:51:20;20.67;;;11.35;;
71679;SDS011;59512;42.662;23.254;2023-02-27T04:53:51;19.40;;;12.13;;
71679;SDS011;59512;42.662;23.254;2023-02-27T04:56:20;18.42;;;11.10;;
71679;SDS011;59512;42.662;23.254;2023-02-27T05:01:35;35.88;;;22.42;;
71679;SDS011;59512;42.662;23.254;2023-02-27T05:04:06;20.35;;;11.85;;
71679;SDS011;59512;42.662;23.254;2023-02-27T05:06:34;17.53;;;10.57;;
71679;SDS011;59512;42.662;23.254;2023-02-27T05:09:12;18.75;;;11.30;;
71679;SDS011;59512;42.662;23.254;2023-02-27T05:11:43;21.40;;;12.52;;
71679;SDS011;59512;42.662;23.254;2023-02-27T05:16:53;24.10;;;13.63;;
71679;SDS011;59512;42.662;23.254;2023-02-27T05:19:24;23.30;;;15.23;;
71679;SDS011;59512;42.662;23.254;2023-02-27T05:21:52;16.20;;;9.90;;
71679;SDS011;59512;42.662;23.254;2023-02-27T05:29:51;16.50;;;8.65;;
71679;SDS011;59512;42.662;23.254;2023-02-27T05:34:54;14.25;;;8.57;;
71679;SDS011;59512;42.662;23.254;2023-02-27T05:37:24;14.73;;;8.13;;
71679;SDS011;59512;42.662;23.254;2023-02-27T05:39:53;14.73;;;7.97;;
71679;SDS011;59512;42.662;23.254;2023-02-27T05:42:21;17.38;;;9.30;;
71679;SDS011;59512;42.662;23.254;2023-02-27T05:44:50;14.97;;;8.67;;
71679;SDS011;59512;42.662;23.254;2023-02-27T05:47:20;14.63;;;8.73;;
71679;SDS011;59512;42.662;23.254;2023-02-27T05:49:51;10.02;;;5.65;;
71679;SDS011;59512;42.662;23.254;2023-02-27T05:52:20;9.52;;;4.32;;
71679;SDS011;59512;42.662;23.254;2023-02-27T05:54:52;8.20;;;4.18;;
71679;SDS011;59512;42.662;23.254;2023-02-27T05:57:21;9.90;;;4.87;;
71679;SDS011;59512;42.662;23.254;2023-02-27T06:02:23;7.95;;;4.10;;
71679;SDS011;59512;42.662;23.254;2023-02-27T06:04:49;8.60;;;4.23;;
71679;SDS011;59512;42.662;23.254;2023-02-27T06:07:14;7.82;;;4.03;;
71679;SDS011;59512;42.662;23.254;2023-02-27T06:09:41;9.05;;;4.90;;
71679;SDS011;59512;42.662;23.254;2023-02-27T06:12:08;8.40;;;4.30;;
71679;SDS011;59512;42.662;23.254;2023-02-27T06:14:33;9.20;;;4.50;;
71679;SDS011;59512;42.662;23.254;2023-02-27T06:16:58;8.70;;;5.18;;
71679;SDS011;59512;42.662;23.254;2023-02-27T06:19:24;8.43;;;5.13;;
71679;SDS011;59512;42.662;23.254;2023-02-27T06:21:49;9.27;;;4.27;;
71679;SDS011;59512;42.662;23.254;2023-02-27T06:24:15;9.33;;;5.13;;
71679;SDS011;59512;42.662;23.254;2023-02-27T06:26:40;9.07;;;4.95;;
71679;SDS011;59512;42.662;23.254;2023-02-27T06:29:06;8.67;;;5.20;;
71679;SDS011;59512;42.662;23.254;2023-02-27T06:31:31;8.73;;;4.67;;
71679;SDS011;59512;42.662;23.254;2023-02-27T06:33:56;9.30;;;4.97;;
71679;SDS011;59512;42.662;23.254;2023-02-27T06:36:22;11.57;;;6.20;;
71679;SDS011;59512;42.662;23.254;2023-02-27T06:38:47;9.02;;;4.57;;
71679;SDS011;59512;42.662;23.254;2023-02-27T06:41:13;9.20;;;5.60;;
71679;SDS011;59512;42.662;23.254;2023-02-27T06:43:38;9.90;;;5.83;;
71679;SDS011;59512;42.662;23.254;2023-02-27T06:46:04;11.23;;;5.82;;
71679;SDS011;59512;42.662;23.254;2023-02-27T06:48:29;9.17;;;4.83;;
71679;SDS011;59512;42.662;23.254;2023-02-27T06:50:55;10.50;;;6.37;;
71679;SDS011;59512;42.662;23.254;2023-02-27T06:53:21;11.27;;;6.57;;
71679;SDS011;59512;42.662;23.254;2023-02-27T06:55:47;10.37;;;6.20;;
71679;SDS011;59512;42.662;23.254;2023-02-27T06:58:13;8.85;;;4.30;;
71679;SDS011;59512;42.662;23.254;2023-02-27T07:00:39;10.75;;;5.93;;
71679;SDS011;59512;42.662;23.254;2023-02-27T07:03:04;13.67;;;7.10;;
71679;SDS011;59512;42.662;23.254;2023-02-27T07:05:30;12.17;;;6.43;;
71679;SDS011;59512;42.662;23.254;2023-02-27T07:07:55;12.32;;;6.82;;
71679;SDS011;59512;42.662;23.254;2023-02-27T07:10:22;10.32;;;5.57;;
71679;SDS011;59512;42.662;23.254;2023-02-27T07:12:48;10.83;;;5.50;;
71679;SDS011;59512;42.662;23.254;2023-02-27T07:15:13;8.27;;;4.43;;
71679;SDS011;59512;42.662;23.254;2023-02-27T07:17:39;11.37;;;6.03;;
71679;SDS011;59512;42.662;23.254;2023-02-27T07:20:05;12.47;;;6.10;;
71679;SDS011;59512;42.662;23.254;2023-02-27T07:22:32;13.02;;;6.80;;
71679;SDS011;59512;42.662;23.254;2023-02-27T07:24:58;21.37;;;6.10;;
71679;SDS011;59512;42.662;23.254;2023-02-27T07:27:23;13.43;;;5.90;;
71679;SDS011;59512;42.662;23.254;2023-02-27T07:29:49;10.47;;;5.87;;
71679;SDS011;59512;42.662;23.254;2023-02-27T07:32:14;10.33;;;6.13;;
71679;SDS011;59512;42.662;23.254;2023-02-27T07:34:39;14.82;;;6.45;;
71679;SDS011;59512;42.662;23.254;2023-02-27T07:37:05;18.77;;;6.78;;
71679;SDS011;59512;42.662;23.254;2023-02-27T07:39:30;12.47;;;7.27;;
71679;SDS011;59512;42.662;23.254;2023-02-27T07:41:56;15.60;;;7.93;;
71679;SDS011;59512;42.662;23.254;2023-02-27T07:44:21;11.30;;;7.17;;
71679;SDS011;59512;42.662;23.254;2023-02-27T07:46:46;11.53;;;6.73;;
71679;SDS011;59512;42.662;23.254;2023-02-27T07:49:12;10.85;;;6.82;;
71679;SDS011;59512;42.662;23.254;2023-02-27T07:51:38;14.25;;;8.43;;
71679;SDS011;59512;42.662;23.254;2023-02-27T07:54:03;12.60;;;7.03;;
71679;SDS011;59512;42.662;23.254;2023-02-27T07:56:28;10.83;;;6.90;;
71679;SDS011;59512;42.662;23.254;2023-02-27T07:58:54;11.23;;;6.88;;
71679;SDS011;59512;42.662;23.254;2023-02-27T08:01:20;13.57;;;7.00;;
71679;SDS011;59512;42.662;23.254;2023-02-27T08:03:45;15.00;;;7.17;;
71679;SDS011;59512;42.662;23.254;2023-02-27T08:06:11;11.98;;;6.95;;
71679;SDS011;59512;42.662;23.254;2023-02-27T08:08:36;14.37;;;7.87;;
71679;SDS011;59512;42.662;23.254;2023-02-27T08:11:02;15.60;;;8.23;;
71679;SDS011;59512;42.662;23.254;2023-02-27T08:13:27;12.25;;;7.50;;
71679;SDS011;59512;42.662;23.254;2023-02-27T08:15:53;14.73;;;8.83;;
71679;SDS011;59512;42.662;23.254;2023-02-27T08:18:19;13.77;;;6.70;;
71679;SDS011;59512;42.662;23.254;2023-02-27T08:20:44;10.93;;;6.10;;
71679;SDS011;59512;42.662;23.254;2023-02-27T08:23:10;12.43;;;5.90;;
71679;SDS011;59512;42.662;23.254;2023-02-27T08:25:36;11.85;;;6.25;;
71679;SDS011;59512;42.662;23.254;2023-02-27T08:28:01;11.80;;;6.30;;
71679;SDS011;59512;42.662;23.254;2023-02-27T08:30:27;12.97;;;6.00;;
71679;SDS011;59512;42.662;23.254;2023-02-27T08:32:52;10.63;;;6.20;;
71679;SDS011;59512;42.662;23.254;2023-02-27T08:35:19;10.93;;;5.90;;
71679;SDS011;59512;42.662;23.254;2023-02-27T08:37:45;11.83;;;6.90;;
71679;SDS011;59512;42.662;23.254;2023-02-27T08:40:11;11.57;;;6.38;;
71679;SDS011;59512;42.662;23.254;2023-02-27T08:42:37;11.57;;;5.63;;
71679;SDS011;59512;42.662;23.254;2023-02-27T08:45:03;11.43;;;5.43;;
71679;SDS011;59512;42.662;23.254;2023-02-27T08:47:28;11.87;;;5.47;;
71679;SDS011;59512;42.662;23.254;2023-02-27T08:49:54;11.38;;;5.10;;
71679;SDS011;59512;42.662;23.254;2023-02-27T08:52:20;15.60;;;5.53;;
71679;SDS011;59512;42.662;23.254;2023-02-27T08:54:46;13.23;;;5.70;;
71679;SDS011;59512;42.662;23.254;2023-02-27T08:57:12;13.50;;;5.50;;
71679;SDS011;59512;42.662;23.254;2023-02-27T08:59:37;12.90;;;6.90;;
71679;SDS011;59512;42.662;23.254;2023-02-27T09:02:02;11.03;;;6.63;;
71679;SDS011;59512;42.662;23.254;2023-02-27T09:04:28;13.17;;;6.50;;
71679;SDS011;59512;42.662;23.254;2023-02-27T09:06:53;13.87;;;6.93;;
71679;SDS011;59512;42.662;23.254;2023-02-27T09:09:19;12.23;;;6.80;;
71679;SDS011;59512;42.662;23.254;2023-02-27T09:11:47;11.02;;;6.70;;
71679;SDS011;59512;42.662;23.254;2023-02-27T09:14:13;12.95;;;5.72;;
71679;SDS011;59512;42.662;23.254;2023-02-27T09:16:39;12.67;;;5.40;;
71679;SDS011;59512;42.662;23.254;2023-02-27T09:19:04;9.47;;;5.07;;
71679;SDS011;59512;42.662;23.254;2023-02-27T09:21:30;11.55;;;6.03;;
71679;SDS011;59512;42.662;23.254;2023-02-27T09:23:56;12.70;;;5.18;;
71679;SDS011;59512;42.662;23.254;2023-02-27T09:26:22;11.40;;;5.13;;
71679;SDS011;59512;42.662;23.254;2023-02-27T09:28:48;10.57;;;4.95;;
71679;SDS011;59512;42.662;23.254;2023-02-27T09:31:14;10.43;;;5.35;;
71679;SDS011;59512;42.662;23.254;2023-02-27T09:33:40;10.40;;;5.10;;
71679;SDS011;59512;42.662;23.254;2023-02-27T09:36:06;12.25;;;5.43;;
71679;SDS011;59512;42.662;23.254;2023-02-27T09:38:32;13.43;;;7.30;;
71679;SDS011;59512;42.662;23.254;2023-02-27T09:40:58;14.45;;;6.07;;
71679;SDS011;59512;42.662;23.254;2023-02-27T09:43:36;13.52;;;5.47;;
71679;SDS011;59512;42.662;23.254;2023-02-27T09:46:14;14.20;;;6.28;;
71679;SDS011;59512;42.662;23.254;2023-02-27T09:48:46;10.80;;;5.60;;
71679;SDS011;59512;42.662;23.254;2023-02-27T09:51:14;9.57;;;5.10;;
71679;SDS011;59512;42.662;23.254;2023-02-27T09:53:41;14.15;;;5.68;;
71679;SDS011;59512;42.662;23.254;2023-02-27T09:56:09;10.75;;;5.60;;
71679;SDS011;59512;42.662;23.254;2023-02-27T10:01:20;11.30;;;6.28;;
71679;SDS011;59512;42.662;23.254;2023-02-27T10:06:43;11.27;;;6.95;;
71679;SDS011;59512;42.662;23.254;2023-02-27T10:12:13;12.70;;;6.72;;
71679;SDS011;59512;42.662;23.254;2023-02-27T10:14:50;9.00;;;5.85;;
71679;SDS011;59512;42.662;23.254;2023-02-27T10:17:24;10.67;;;5.80;;
71679;SDS011;59512;42.662;23.254;2023-02-27T10:19:53;11.65;;;6.50;;
71679;SDS011;59512;42.662;23.254;2023-02-27T10:22:20;12.88;;;7.65;;
71679;SDS011;59512;42.662;23.254;2023-02-27T10:24:54;13.15;;;7.85;;
71679;SDS011;59512;42.662;23.254;2023-02-27T10:27:23;12.90;;;7.20;;
71679;SDS011;59512;42.662;23.254;2023-02-27T10:29:49;12.63;;;7.20;;
71679;SDS011;59512;42.662;23.254;2023-02-27T10:32:36;11.57;;;7.13;;
71679;SDS011;59512;42.662;23.254;2023-02-27T10:35:08;15.93;;;8.27;;
71679;SDS011;59512;42.662;23.254;2023-02-27T10:37:48;16.27;;;7.65;;
71679;SDS011;59512;42.662;23.254;2023-02-27T10:40:15;10.95;;;6.97;;
71679;SDS011;59512;42.662;23.254;2023-02-27T10:42:41;14.77;;;7.45;;
71679;SDS011;59512;42.662;23.254;2023-02-27T10:45:11;13.20;;;7.30;;
71679;SDS011;59512;42.662;23.254;2023-02-27T10:47:39;13.82;;;7.15;;
71679;SDS011;59512;42.662;23.254;2023-02-27T10:50:50;14.05;;;7.80;;
71679;SDS011;59512;42.662;23.254;2023-02-27T10:52:54;13.10;;;7.95;;
71679;SDS011;59512;42.662;23.254;2023-02-27T10:55:25;12.07;;;7.67;;
71679;SDS011;59512;42.662;23.254;2023-02-27T10:57:52;14.75;;;8.10;;
71679;SDS011;59512;42.662;23.254;2023-02-27T11:02:57;13.93;;;8.05;;
71679;SDS011;59512;42.662;23.254;2023-02-27T11:05:30;15.77;;;9.18;;
71679;SDS011;59512;42.662;23.254;2023-02-27T11:08:18;17.60;;;9.43;;
71679;SDS011;59512;42.662;23.254;2023-02-27T11:11:18;16.27;;;8.98;;
71679;SDS011;59512;42.662;23.254;2023-02-27T11:13:41;14.13;;;8.55;;
71679;SDS011;59512;42.662;23.254;2023-02-27T11:16:13;17.17;;;8.93;;
71679;SDS011;59512;42.662;23.254;2023-02-27T11:18:41;13.18;;;8.55;;
71679;SDS011;59512;42.662;23.254;2023-02-27T11:21:09;16.37;;;8.80;;
71679;SDS011;59512;42.662;23.254;2023-02-27T11:23:35;15.15;;;9.57;;
71679;SDS011;59512;42.662;23.254;2023-02-27T11:26:22;15.07;;;8.93;;
71679;SDS011;59512;42.662;23.254;2023-02-27T11:31:46;15.55;;;9.75;;
71679;SDS011;59512;42.662;23.254;2023-02-27T11:34:37;17.10;;;10.70;;
71679;SDS011;59512;42.662;23.254;2023-02-27T11:39:46;19.60;;;12.30;;
71679;SDS011;59512;42.662;23.254;2023-02-27T11:42:14;20.05;;;11.90;;
71679;SDS011;59512;42.662;23.254;2023-02-27T11:44:50;19.25;;;11.48;;
71679;SDS011;59512;42.662;23.254;2023-02-27T11:47:20;19.73;;;11.67;;
71679;SDS011;59512;42.662;23.254;2023-02-27T11:49:55;17.73;;;10.70;;
71679;SDS011;59512;42.662;23.254;2023-02-27T11:54:56;18.33;;;11.02;;
71679;SDS011;59512;42.662;23.254;2023-02-27T11:57:30;17.77;;;11.10;;
71679;SDS011;59512;42.662;23.254;2023-02-27T12:00:04;23.73;;;12.10;;
71679;SDS011;59512;42.662;23.254;2023-02-27T12:07:57;17.05;;;11.30;;
71679;SDS011;59512;42.662;23.254;2023-02-27T12:15:57;17.15;;;11.43;;
71679;SDS011;59512;42.662;23.254;2023-02-27T12:18:33;24.23;;;11.63;;
71679;SDS011;59512;42.662;23.254;2023-02-27T12:21:03;16.75;;;10.00;;
71679;SDS011;59512;42.662;23.254;2023-02-27T12:23:37;19.98;;;11.07;;
71679;SDS011;59512;42.662;23.254;2023-02-27T12:26:11;17.90;;;11.30;;
71679;SDS011;59512;42.662;23.254;2023-02-27T12:28:59;20.60;;;11.60;;
71679;SDS011;59512;42.662;23.254;2023-02-27T12:36:43;19.95;;;10.80;;
71679;SDS011;59512;42.662;23.254;2023-02-27T12:39:22;20.97;;;10.73;;
71679;SDS011;59512;42.662;23.254;2023-02-27T12:50:19;22.10;;;11.75;;
71679;SDS011;59512;42.662;23.254;2023-02-27T12:55:26;23.83;;;12.90;;
71679;SDS011;59512;42.662;23.254;2023-02-27T12:58:08;21.27;;;11.68;;
71679;SDS011;59512;42.662;23.254;2023-02-27T13:14:10;23.95;;;11.75;;
71679;SDS011;59512;42.662;23.254;2023-02-27T13:16:32;16.38;;;10.25;;
71679;SDS011;59512;42.662;23.254;2023-02-27T13:21:45;21.90;;;10.07;;
71679;SDS011;59512;42.662;23.254;2023-02-27T13:24:25;18.52;;;9.50;;
71679;SDS011;59512;42.662;23.254;2023-02-27T13:26:57;17.58;;;8.95;;
71679;SDS011;59512;42.662;23.254;2023-02-27T13:29:33;12.93;;;7.97;;
71679;SDS011;59512;42.662;23.254;2023-02-27T13:32:04;12.93;;;7.70;;
71679;SDS011;59512;42.662;23.254;2023-02-27T13:34:43;13.50;;;9.00;;
71679;SDS011;59512;42.662;23.254;2023-02-27T13:37:12;13.73;;;8.23;;
71679;SDS011;59512;42.662;23.254;2023-02-27T13:44:53;14.02;;;7.97;;
71679;SDS011;59512;42.662;23.254;2023-02-27T13:50:00;12.60;;;7.30;;
71679;SDS011;59512;42.662;23.254;2023-02-27T13:52:28;14.13;;;8.05;;
71679;SDS011;59512;42.662;23.254;2023-02-27T13:54:56;13.82;;;7.60;;
71679;SDS011;59512;42.662;23.254;2023-02-27T13:57:23;13.43;;;7.77;;
71679;SDS011;59512;42.662;23.254;2023-02-27T13:59:54;13.07;;;8.00;;
71679;SDS011;59512;42.662;23.254;2023-02-27T14:02:32;15.52;;;9.05;;
71679;SDS011;59512;42.662;23.254;2023-02-27T14:05:00;15.15;;;7.72;;
71679;SDS011;59512;42.662;23.254;2023-02-27T14:07:31;14.07;;;7.90;;
71679;SDS011;59512;42.662;23.254;2023-02-27T14:10:00;14.98;;;8.60;;
71679;SDS011;59512;42.662;23.254;2023-02-27T14:12:32;18.08;;;8.63;;
71679;SDS011;59512;42.662;23.254;2023-02-27T14:15:00;21.42;;;9.02;;
71679;SDS011;59512;42.662;23.254;2023-02-27T14:20:03;11.70;;;6.83;;
71679;SDS011;59512;42.662;23.254;2023-02-27T14:25:19;14.05;;;7.05;;
71679;SDS011;59512;42.662;23.254;2023-02-27T14:27:49;12.90;;;6.93;;
71679;SDS011;59512;42.662;23.254;2023-02-27T14:30:27;14.38;;;8.70;;
71679;SDS011;59512;42.662;23.254;2023-02-27T14:35:34;12.63;;;8.07;;
71679;SDS011;59512;42.662;23.254;2023-02-27T14:38:01;13.00;;;7.00;;
71679;SDS011;59512;42.662;23.254;2023-02-27T14:40:34;12.18;;;6.53;;
71679;SDS011;59512;42.662;23.254;2023-02-27T14:43:09;11.83;;;6.53;;
71679;SDS011;59512;42.662;23.254;2023-02-27T14:45:41;13.73;;;7.20;;
71679;SDS011;59512;42.662;23.254;2023-02-27T14:48:07;11.10;;;6.90;;
71679;SDS011;59512;42.662;23.254;2023-02-27T14:50:35;13.38;;;7.93;;
71679;SDS011;59512;42.662;23.254;2023-02-27T14:53:03;12.82;;;7.70;;
71679;SDS011;59512;42.662;23.254;2023-02-27T14:55:31;14.80;;;8.88;;
71679;SDS011;59512;42.662;23.254;2023-02-27T15:03:09;14.55;;;8.38;;
71679;SDS011;59512;42.662;23.254;2023-02-27T15:05:37;14.95;;;9.38;;
71679;SDS011;59512;42.662;23.254;2023-02-27T15:08:03;17.93;;;11.00;;
71679;SDS011;59512;42.662;23.254;2023-02-27T15:10:28;15.63;;;9.02;;
71679;SDS011;59512;42.662;23.254;2023-02-27T15:12:58;14.90;;;8.33;;
71679;SDS011;59512;42.662;23.254;2023-02-27T15:15:24;17.80;;;9.30;;
71679;SDS011;59512;42.662;23.254;2023-02-27T15:17:52;17.05;;;8.55;;
71679;SDS011;59512;42.662;23.254;2023-02-27T15:22:45;18.65;;;10.18;;
71679;SDS011;59512;42.662;23.254;2023-02-27T15:27:56;17.07;;;10.80;;
71679;SDS011;59512;42.662;23.254;2023-02-27T15:30:25;19.67;;;12.20;;
71679;SDS011;59512;42.662;23.254;2023-02-27T15:32:51;17.30;;;8.73;;
71679;SDS011;59512;42.662;23.254;2023-02-27T15:35:21;18.70;;;10.68;;
71679;SDS011;59512;42.662;23.254;2023-02-27T15:37:52;22.13;;;12.63;;
71679;SDS011;59512;42.662;23.254;2023-02-27T15:40:23;21.13;;;12.68;;
71679;SDS011;59512;42.662;23.254;2023-02-27T15:42:51;21.90;;;12.95;;
71679;SDS011;59512;42.662;23.254;2023-02-27T15:45:20;22.98;;;13.18;;
71679;SDS011;59512;42.662;23.254;2023-02-27T15:47:49;19.67;;;10.77;;
71679;SDS011;59512;42.662;23.254;2023-02-27T15:52:41;18.37;;;10.47;;
71679;SDS011;59512;42.662;23.254;2023-02-27T15:55:38;21.67;;;13.20;;
71679;SDS011;59512;42.662;23.254;2023-02-27T15:58:09;22.73;;;12.27;;
71679;SDS011;59512;42.662;23.254;2023-02-27T16:00:45;22.93;;;12.90;;
71679;SDS011;59512;42.662;23.254;2023-02-27T16:03:12;20.38;;;12.60;;
71679;SDS011;59512;42.662;23.254;2023-02-27T16:05:41;18.75;;;12.60;;
71679;SDS011;59512;42.662;23.254;2023-02-27T16:08:12;23.97;;;14.10;;
71679;SDS011;59512;42.662;23.254;2023-02-27T16:10:42;29.95;;;15.73;;
71679;SDS011;59512;42.662;23.254;2023-02-27T16:13:18;28.17;;;16.63;;
71679;SDS011;59512;42.662;23.254;2023-02-27T16:15:56;28.88;;;16.58;;
71679;SDS011;59512;42.662;23.254;2023-02-27T16:18:45;28.05;;;16.52;;
71679;SDS011;59512;42.662;23.254;2023-02-27T16:21:13;27.00;;;16.23;;
71679;SDS011;59512;42.662;23.254;2023-02-27T16:23:43;26.63;;;16.30;;
71679;SDS011;59512;42.662;23.254;2023-02-27T16:28:57;29.80;;;17.83;;
71679;SDS011;59512;42.662;23.254;2023-02-27T16:31:35;30.92;;;18.35;;
71679;SDS011;59512;42.662;23.254;2023-02-27T16:34:47;30.83;;;18.52;;
71679;SDS011;59512;42.662;23.254;2023-02-27T16:37:05;30.20;;;19.67;;
71679;SDS011;59512;42.662;23.254;2023-02-27T16:39:31;35.90;;;22.63;;
71679;SDS011;59512;42.662;23.254;2023-02-27T16:41:58;37.15;;;24.38;;
71679;SDS011;59512;42.662;23.254;2023-02-27T16:44:24;38.30;;;24.85;;
71679;SDS011;59512;42.662;23.254;2023-02-27T16:46:53;38.78;;;24.85;;
71679;SDS011;59512;42.662;23.254;2023-02-27T16:49:21;43.53;;;28.47;;
71679;SDS011;59512;42.662;23.254;2023-02-27T16:51:48;45.65;;;29.08;;
71679;SDS011;59512;42.662;23.254;2023-02-27T16:54:14;35.75;;;23.00;;
71679;SDS011;59512;42.662;23.254;2023-02-27T16:56:40;34.07;;;22.83;;
71679;SDS011;59512;42.662;23.254;2023-02-27T16:59:09;36.05;;;24.50;;
71679;SDS011;59512;42.662;23.254;2023-02-27T17:01:47;48.10;;;33.53;;
71679;SDS011;59512;42.662;23.254;2023-02-27T17:04:13;46.70;;;29.57;;
71679;SDS011;59512;42.662;23.254;2023-02-27T17:06:38;46.38;;;27.35;;
71679;SDS011;59512;42.662;23.254;2023-02-27T17:09:04;41.60;;;27.33;;
71679;SDS011;59512;42.662;23.254;2023-02-27T17:11:29;42.83;;;26.80;;
71679;SDS011;59512;42.662;23.254;2023-02-27T17:13:55;43.47;;;27.47;;
71679;SDS011;59512;42.662;23.254;2023-02-27T17:16:20;49.70;;;29.97;;
71679;SDS011;59512;42.662;23.254;2023-02-27T17:18:45;42.10;;;26.30;;
71679;SDS011;59512;42.662;23.254;2023-02-27T17:21:11;42.05;;;28.38;;
71679;SDS011;59512;42.662;23.254;2023-02-27T17:23:36;48.03;;;30.63;;
71679;SDS011;59512;42.662;23.254;2023-02-27T17:26:02;48.90;;;31.80;;
71679;SDS011;59512;42.662;23.254;2023-02-27T17:28:28;55.45;;;37.42;;